Time,TemperatureF,DewpointF,PressureIn,WindDirection,WindDirectionDegrees,WindSpeedMPH,WindSpeedGustMPH,Humidity,HourlyPrecipIn,Conditions,Clouds,dailyrainin,SolarRadiationWatts/m^2,SoftwareType,DateUTC
2013-09-02 00:00:00,78.6,76.1,29.99,SSE,155,0.0,0.0,92,0.00,,,0.00,0,Wunderground v.1.15,2013-09-02 04:00:00,
2013-09-02 00:02:00,78.6,76.1,30.00,SSE,155,0.0,0.0,92,0.00,,,0.00,0,Wunderground v.1.15,2013-09-02 04:02:00,
2013-09-02 00:04:00,78.6,76.1,30.00,SSE,155,0.0,0.0,92,0.00,,,0.00,0,Wunderground v.1.15,2013-09-02 04:04:00,
2013-09-02 00:06:00,78.6,76.1,30.00,SSE,155,0.0,0.0,92,0.00,,,0.00,0,Wunderground v.1.15,2013-09-02 04:06:00,
2013-09-02 00:12:00,78.5,76.0,30.00,SSE,155,0.0,0.0,92,0.00,,,0.00,0,Wunderground v.1.15,2013-09-02 04:12:00,
2013-09-02 00:18:00,78.5,76.0,29.99,SSE,155,0.0,0.0,92,0.00,,,0.00,0,Wunderground v.1.15,2013-09-02 04:18:00,
2013-09-02 00:20:00,78.4,75.9,29.99,SSE,155,0.0,0.0,92,0.00,,,0.00,0,Wunderground v.1.15,2013-09-02 04:20:00,
2013-09-02 00:26:00,78.4,75.9,29.99,SSE,155,0.0,0.0,92,0.00,,,0.00,0,Wunderground v.1.15,2013-09-02 04:26:00,
2013-09-02 00:32:00,78.4,75.9,29.99,SSE,155,0.0,0.0,92,0.00,,,0.00,0,Wunderground v.1.15,2013-09-02 04:32:00,
2013-09-02 00:38:00,78.4,75.9,29.99,SSE,155,0.0,0.0,92,0.00,,,0.00,0,Wunderground v.1.15,2013-09-02 04:38:00,
2013-09-02 00:44:00,78.4,75.9,29.99,SSE,155,0.0,0.0,92,0.00,,,0.00,0,Wunderground v.1.15,2013-09-02 04:44:00,
2013-09-02 00:50:00,78.3,75.8,29.99,SSE,155,0.0,0.0,92,0.00,,,0.00,0,Wunderground v.1.15,2013-09-02 04:50:00,
2013-09-02 00:56:00,78.3,76.1,29.99,SSE,155,0.0,0.0,93,0.00,,,0.00,0,Wunderground v.1.15,2013-09-02 04:56:00,
2013-09-02 01:02:00,78.3,76.1,29.99,SSE,155,0.0,0.0,93,0.00,,,0.00,0,Wunderground v.1.15,2013-09-02 05:02:00,
2013-09-02 01:08:00,78.2,76.0,29.99,SSE,155,0.0,0.0,93,0.00,,,0.00,0,Wunderground v.1.15,2013-09-02 05:08:00,
2013-09-02 01:14:00,78.1,75.9,29.99,SSE,155,0.0,0.0,93,0.00,,,0.00,0,Wunderground v.1.15,2013-09-02 05:14:00,
2013-09-02 01:20:00,78.0,75.8,29.98,SSE,155,0.0,0.0,93,0.00,,,0.00,0,Wunderground v.1.15,2013-09-02 05:20:00,
2013-09-02 01:26:00,78.0,75.8,29.98,SSE,155,0.0,0.0,93,0.00,,,0.00,0,Wunderground v.1.15,2013-09-02 05:26:00,
2013-09-02 01:32:00,77.9,75.7,29.98,SSE,155,0.0,0.0,93,0.00,,,0.00,0,Wunderground v.1.15,2013-09-02 05:32:00,
2013-09-02 01:38:00,77.9,75.7,29.98,SSE,155,0.0,0.0,93,0.00,,,0.00,0,Wunderground v.1.15,2013-09-02 05:38:00,
2013-09-02 01:44:00,77.9,75.7,29.98,SSE,155,0.0,0.0,93,0.00,,,0.00,0,Wunderground v.1.15,2013-09-02 05:44:00,
2013-09-02 01:50:00,77.9,75.7,29.98,SSE,155,0.0,0.0,93,0.00,,,0.00,0,Wunderground v.1.15,2013-09-02 05:50:00,
2013-09-02 01:56:00,77.8,75.6,29.98,SSE,155,0.0,0.0,93,0.00,,,0.00,0,Wunderground v.1.15,2013-09-02 05:56:00,
2013-09-02 02:02:00,77.7,75.5,29.98,SSE,155,0.0,0.0,93,0.00,,,0.00,0,Wunderground v.1.15,2013-09-02 06:02:00,
2013-09-02 02:08:00,77.7,75.5,29.97,SSE,155,0.0,0.0,93,0.00,,,0.00,0,Wunderground v.1.15,2013-09-02 06:08:00,
2013-09-02 02:14:00,77.7,75.5,29.97,SSE,155,0.0,0.0,93,0.00,,,0.00,0,Wunderground v.1.15,2013-09-02 06:14:00,
2013-09-02 02:20:00,77.6,75.4,29.97,SSE,155,0.0,0.0,93,0.00,,,0.00,0,Wunderground v.1.15,2013-09-02 06:20:00,
2013-09-02 02:26:00,77.6,75.4,29.97,SSE,155,0.0,0.0,93,0.00,,,0.00,0,Wunderground v.1.15,2013-09-02 06:26:00,
2013-09-02 02:32:00,77.5,75.3,29.96,SSE,155,0.0,0.0,93,0.00,,,0.00,0,Wunderground v.1.15,2013-09-02 06:32:00,
2013-09-02 02:38:00,77.5,75.6,29.96,SSE,155,0.0,0.0,94,0.00,,,0.00,0,Wunderground v.1.15,2013-09-02 06:38:00,
2013-09-02 02:44:00,77.4,75.2,29.96,SSE,155,0.0,0.0,93,0.00,,,0.00,0,Wunderground v.1.15,2013-09-02 06:44:00,
2013-09-02 02:50:00,77.3,75.1,29.96,SSE,155,0.0,0.0,93,0.00,,,0.00,0,Wunderground v.1.15,2013-09-02 06:50:00,
2013-09-02 02:56:00,77.3,75.4,29.96,SSE,155,0.0,0.0,94,0.00,,,0.00,0,Wunderground v.1.15,2013-09-02 06:56:00,
2013-09-02 03:02:00,77.2,75.0,29.95,SSE,155,0.0,0.0,93,0.00,,,0.00,0,Wunderground v.1.15,2013-09-02 07:02:00,
2013-09-02 03:08:00,77.1,75.2,29.96,SSE,155,0.0,0.0,94,0.00,,,0.00,0,Wunderground v.1.15,2013-09-02 07:08:00,
2013-09-02 03:14:00,77.0,75.1,29.95,SSE,155,0.0,0.0,94,0.00,,,0.00,0,Wunderground v.1.15,2013-09-02 07:14:00,
2013-09-02 03:20:00,76.9,75.0,29.95,SSE,155,0.0,0.0,94,0.00,,,0.00,0,Wunderground v.1.15,2013-09-02 07:20:00,
2013-09-02 03:26:00,76.9,75.0,29.95,SSE,155,0.0,0.0,94,0.00,,,0.00,0,Wunderground v.1.15,2013-09-02 07:26:00,
2013-09-02 03:32:00,76.9,75.0,29.95,SSE,155,0.0,0.0,94,0.00,,,0.00,0,Wunderground v.1.15,2013-09-02 07:32:00,
2013-09-02 03:38:00,76.9,75.0,29.95,SSE,155,0.0,0.0,94,0.00,,,0.00,0,Wunderground v.1.15,2013-09-02 07:38:00,
2013-09-02 03:44:00,76.9,75.0,29.95,SSE,155,0.0,0.0,94,0.00,,,0.00,0,Wunderground v.1.15,2013-09-02 07:44:00,
2013-09-02 03:50:00,76.9,75.0,29.95,SSE,155,0.0,0.0,94,0.00,,,0.00,0,Wunderground v.1.15,2013-09-02 07:50:00,
2013-09-02 03:56:00,76.8,74.9,29.95,SSE,155,0.0,0.0,94,0.00,,,0.00,0,Wunderground v.1.15,2013-09-02 07:56:00,
2013-09-02 04:02:00,76.9,75.0,29.95,SSE,155,0.0,0.0,94,0.00,,,0.00,0,Wunderground v.1.15,2013-09-02 08:02:00,
2013-09-02 04:08:00,76.9,75.0,29.95,SSE,155,0.0,0.0,94,0.00,,,0.00,0,Wunderground v.1.15,2013-09-02 08:08:00,
2013-09-02 04:14:00,76.9,75.0,29.95,SSE,155,0.0,0.0,94,0.00,,,0.00,0,Wunderground v.1.15,2013-09-02 08:14:00,
2013-09-02 04:20:00,76.9,75.0,29.95,SSE,155,0.0,0.0,94,0.00,,,0.00,0,Wunderground v.1.15,2013-09-02 08:20:00,
2013-09-02 04:26:00,76.9,75.0,29.95,SSE,155,0.0,0.0,94,0.00,,,0.00,0,Wunderground v.1.15,2013-09-02 08:26:00,
2013-09-02 04:32:00,76.9,75.0,29.95,SSE,155,0.0,0.0,94,0.00,,,0.00,0,Wunderground v.1.15,2013-09-02 08:32:00,
2013-09-02 04:38:00,76.7,74.8,29.95,SSE,155,0.0,0.0,94,0.00,,,0.00,0,Wunderground v.1.15,2013-09-02 08:38:00,
2013-09-02 04:44:00,76.7,74.8,29.95,SSE,155,0.0,0.0,94,0.00,,,0.00,0,Wunderground v.1.15,2013-09-02 08:44:00,
2013-09-02 04:50:00,76.6,74.7,29.95,SSE,155,0.0,0.0,94,0.00,,,0.00,0,Wunderground v.1.15,2013-09-02 08:50:00,
2013-09-02 04:56:00,76.4,74.5,29.94,SSE,155,0.0,0.0,94,0.00,,,0.00,0,Wunderground v.1.15,2013-09-02 08:56:00,
2013-09-02 05:02:00,76.4,74.9,29.95,SSE,155,0.0,0.0,95,0.00,,,0.00,0,Wunderground v.1.15,2013-09-02 09:02:00,
2013-09-02 05:08:00,76.5,75.0,29.94,SSE,155,0.0,0.0,95,0.00,,,0.00,0,Wunderground v.1.15,2013-09-02 09:08:00,
2013-09-02 05:14:00,76.5,75.0,29.94,SSE,155,0.0,0.0,95,0.00,,,0.00,0,Wunderground v.1.15,2013-09-02 09:14:00,
2013-09-02 05:20:00,76.5,74.6,29.94,SSE,155,0.0,0.0,94,0.00,,,0.00,0,Wunderground v.1.15,2013-09-02 09:20:00,
2013-09-02 05:26:00,76.4,74.9,29.94,SSE,155,0.0,0.0,95,0.00,,,0.00,0,Wunderground v.1.15,2013-09-02 09:26:00,
2013-09-02 05:32:00,76.3,74.4,29.94,SSE,155,0.0,0.0,94,0.00,,,0.00,0,Wunderground v.1.15,2013-09-02 09:32:00,
2013-09-02 05:38:00,76.2,74.3,29.95,SSE,155,0.0,0.0,94,0.00,,,0.00,0,Wunderground v.1.15,2013-09-02 09:38:00,
2013-09-02 05:44:00,76.1,74.2,29.95,SSE,155,0.0,0.0,94,0.00,,,0.00,0,Wunderground v.1.15,2013-09-02 09:44:00,
2013-09-02 05:50:00,76.1,74.2,29.95,SSE,155,0.0,0.0,94,0.00,,,0.00,0,Wunderground v.1.15,2013-09-02 09:50:00,
2013-09-02 05:56:00,76.0,74.1,29.95,SSE,155,0.0,0.0,94,0.00,,,0.00,0,Wunderground v.1.15,2013-09-02 09:56:00,
2013-09-02 06:02:00,76.1,74.6,29.96,SSE,155,0.0,0.0,95,0.00,,,0.00,0,Wunderground v.1.15,2013-09-02 10:02:00,
2013-09-02 06:08:00,76.2,74.7,29.96,SSE,155,0.0,0.0,95,0.00,,,0.00,0,Wunderground v.1.15,2013-09-02 10:08:00,
2013-09-02 06:14:00,76.3,74.8,29.96,SSE,155,0.0,0.0,95,0.00,,,0.00,0,Wunderground v.1.15,2013-09-02 10:14:00,
2013-09-02 06:20:00,76.3,74.8,29.97,SSE,155,0.0,0.0,95,0.00,,,0.00,0,Wunderground v.1.15,2013-09-02 10:20:00,
2013-09-02 06:26:00,76.4,74.9,29.97,SSE,155,0.0,0.0,95,0.00,,,0.00,0,Wunderground v.1.15,2013-09-02 10:26:00,
2013-09-02 06:32:00,76.2,74.3,29.97,SSE,155,0.0,0.0,94,0.00,,,0.00,0,Wunderground v.1.15,2013-09-02 10:32:00,
2013-09-02 06:38:00,76.2,74.3,29.97,SSE,155,0.0,0.0,94,0.00,,,0.00,0,Wunderground v.1.15,2013-09-02 10:38:00,
2013-09-02 06:44:00,76.1,74.6,29.97,SSE,155,0.0,0.0,95,0.00,,,0.00,0,Wunderground v.1.15,2013-09-02 10:44:00,
2013-09-02 06:50:00,76.2,74.7,29.97,SSE,155,0.0,0.0,95,0.00,,,0.00,0,Wunderground v.1.15,2013-09-02 10:50:00,
2013-09-02 06:56:00,76.2,74.7,29.97,SSE,155,0.0,0.0,95,0.00,,,0.00,5,Wunderground v.1.15,2013-09-02 10:56:00,
2013-09-02 07:02:00,76.1,74.6,29.98,SSE,155,0.0,0.0,95,0.00,,,0.00,5,Wunderground v.1.15,2013-09-02 11:02:00,
2013-09-02 07:08:00,76.1,74.6,29.98,SSE,155,0.0,0.0,95,0.00,,,0.00,7,Wunderground v.1.15,2013-09-02 11:08:00,
2013-09-02 07:14:00,76.1,74.6,29.98,SSE,155,0.0,0.0,95,0.00,,,0.01,12,Wunderground v.1.15,2013-09-02 11:14:00,
2013-09-02 07:20:00,76.2,74.7,29.98,SSE,155,0.0,0.0,95,0.00,,,0.01,18,Wunderground v.1.15,2013-09-02 11:20:00,
2013-09-02 07:26:00,76.3,74.8,29.99,SSE,155,0.0,0.0,95,0.00,,,0.01,26,Wunderground v.1.15,2013-09-02 11:26:00,
2013-09-02 07:32:00,76.4,74.9,29.99,SSE,155,0.0,0.0,95,0.00,,,0.01,39,Wunderground v.1.15,2013-09-02 11:32:00,
2013-09-02 07:38:00,76.5,75.0,29.99,SSE,155,0.0,0.0,95,0.00,,,0.01,44,Wunderground v.1.15,2013-09-02 11:38:00,
2013-09-02 07:44:00,76.7,75.2,29.99,SSE,155,0.0,0.0,95,0.00,,,0.01,56,Wunderground v.1.15,2013-09-02 11:44:00,
2013-09-02 07:50:00,76.8,75.3,30.00,SSE,155,0.0,0.0,95,0.00,,,0.01,60,Wunderground v.1.15,2013-09-02 11:50:00,
2013-09-02 07:56:00,77.0,75.5,30.00,SSE,155,0.0,0.0,95,0.00,,,0.01,70,Wunderground v.1.15,2013-09-02 11:56:00,
2013-09-02 08:02:00,77.3,75.8,30.00,SSE,155,0.0,0.0,95,0.00,,,0.01,91,Wunderground v.1.15,2013-09-02 12:02:00,
2013-09-02 08:08:00,77.5,76.0,30.00,SSE,155,0.0,0.0,95,0.00,,,0.01,97,Wunderground v.1.15,2013-09-02 12:08:00,
2013-09-02 08:14:00,77.8,76.3,30.00,SSE,155,0.0,0.0,95,0.00,,,0.01,123,Wunderground v.1.15,2013-09-02 12:14:00,
2013-09-02 08:20:00,78.2,76.6,30.00,SSE,159,0.0,0.0,95,0.00,,,0.01,188,Wunderground v.1.15,2013-09-02 12:20:00,
2013-09-02 08:26:00,78.5,76.9,30.00,SSE,159,0.0,0.0,95,0.00,,,0.01,197,Wunderground v.1.15,2013-09-02 12:26:00,
2013-09-02 08:32:00,78.8,77.2,30.00,SSE,159,0.0,0.0,95,0.00,,,0.01,236,Wunderground v.1.15,2013-09-02 12:32:00,
2013-09-02 08:38:00,79.2,77.6,30.00,SSE,159,0.0,0.0,95,0.00,,,0.01,265,Wunderground v.1.15,2013-09-02 12:38:00,
2013-09-02 08:44:00,79.7,78.1,30.00,SSE,159,0.0,0.0,95,0.00,,,0.01,308,Wunderground v.1.15,2013-09-02 12:44:00,
2013-09-02 08:50:00,80.3,78.1,30.00,SSE,159,0.0,0.0,93,0.00,,,0.01,325,Wunderground v.1.15,2013-09-02 12:50:00,
2013-09-02 08:56:00,81.0,78.5,30.01,SSE,160,0.0,0.0,92,0.00,,,0.01,330,Wunderground v.1.15,2013-09-02 12:56:00,
2013-09-02 09:02:00,81.8,78.2,30.01,SSE,159,0.0,0.0,89,0.00,,,0.01,367,Wunderground v.1.15,2013-09-02 13:02:00,
2013-09-02 09:08:00,82.5,78.2,30.01,SSE,160,0.0,0.0,87,0.00,,,0.01,388,Wunderground v.1.15,2013-09-02 13:08:00,
2013-09-02 09:14:00,83.3,78.7,30.01,SSE,159,0.0,0.0,86,0.00,,,0.01,404,Wunderground v.1.15,2013-09-02 13:14:00,
2013-09-02 09:20:00,84.4,78.7,30.01,SSE,159,0.0,0.0,83,0.00,,,0.01,415,Wunderground v.1.15,2013-09-02 13:20:00,
2013-09-02 09:26:00,84.9,78.0,30.01,SSE,156,0.0,0.0,80,0.00,,,0.01,95,Wunderground v.1.15,2013-09-02 13:26:00,
2013-09-02 09:32:00,84.8,77.9,30.01,SSE,156,0.0,0.0,80,0.00,,,0.01,118,Wunderground v.1.15,2013-09-02 13:32:00,
2013-09-02 09:38:00,84.8,77.9,30.01,SSW,201,0.0,0.0,80,0.00,,,0.01,202,Wunderground v.1.15,2013-09-02 13:38:00,
2013-09-02 09:44:00,85.1,78.2,30.01,SSW,200,0.0,0.0,80,0.00,,,0.01,179,Wunderground v.1.15,2013-09-02 13:44:00,
2013-09-02 09:50:00,85.3,78.0,30.02,SSW,203,0.0,0.0,79,0.00,,,0.01,167,Wunderground v.1.15,2013-09-02 13:50:00,
2013-09-02 09:56:00,85.3,78.0,30.02,SSW,204,0.0,0.0,79,0.00,,,0.01,162,Wunderground v.1.15,2013-09-02 13:56:00,
2013-09-02 10:02:00,85.3,77.3,30.02,South,179,0.0,0.0,77,0.00,,,0.01,188,Wunderground v.1.15,2013-09-02 14:02:00,
2013-09-02 10:08:00,85.4,77.8,30.02,South,179,0.0,0.0,78,0.00,,,0.01,696,Wunderground v.1.15,2013-09-02 14:08:00,
2013-09-02 10:14:00,85.6,76.8,30.02,South,178,0.0,0.0,75,0.00,,,0.01,139,Wunderground v.1.15,2013-09-02 14:14:00,
2013-09-02 10:20:00,85.6,76.8,30.02,South,178,0.0,0.0,75,0.00,,,0.01,139,Wunderground v.1.15,2013-09-02 14:20:00,
2013-09-02 10:26:00,85.6,77.2,30.02,SSE,167,0.0,0.0,76,0.00,,,0.01,211,Wunderground v.1.15,2013-09-02 14:26:00,
2013-09-02 10:32:00,85.9,77.5,30.03,South,175,1.0,5.0,76,0.00,,,0.01,740,Wunderground v.1.15,2013-09-02 14:32:00,
2013-09-02 10:38:00,86.6,78.1,30.03,SE,129,1.0,5.0,76,0.00,,,0.01,731,Wunderground v.1.15,2013-09-02 14:38:00,
2013-09-02 10:44:00,86.9,78.0,30.02,SE,126,0.0,4.0,75,0.00,,,0.01,800,Wunderground v.1.15,2013-09-02 14:44:00,
2013-09-02 10:50:00,86.8,77.5,30.03,South,173,1.0,1.0,74,0.00,,,0.01,807,Wunderground v.1.15,2013-09-02 14:50:00,
2013-09-02 10:56:00,87.2,78.3,30.03,SSE,167,0.0,1.0,75,0.00,,,0.01,898,Wunderground v.1.15,2013-09-02 14:56:00,
2013-09-02 11:02:00,88.0,78.7,30.03,SE,145,0.0,0.0,74,0.00,,,0.01,930,Wunderground v.1.15,2013-09-02 15:02:00,
2013-09-02 11:08:00,88.4,78.6,30.03,ESE,106,0.0,0.0,73,0.00,,,0.01,320,Wunderground v.1.15,2013-09-02 15:08:00,
2013-09-02 11:14:00,88.3,78.1,30.03,SSE,150,0.0,0.0,72,0.00,,,0.01,262,Wunderground v.1.15,2013-09-02 15:14:00,
2013-09-02 11:20:00,88.4,78.6,30.03,SSE,160,0.0,0.0,73,0.00,,,0.01,220,Wunderground v.1.15,2013-09-02 15:20:00,
2013-09-02 11:26:00,88.1,77.9,30.03,SE,144,0.0,1.0,72,0.00,,,0.01,239,Wunderground v.1.15,2013-09-02 15:26:00,
2013-09-02 11:32:00,87.5,77.8,30.03,ESE,109,0.0,0.0,73,0.00,,,0.01,211,Wunderground v.1.15,2013-09-02 15:32:00,
2013-09-02 11:38:00,87.0,77.7,30.03,SE,131,0.0,2.0,74,0.00,,,0.01,165,Wunderground v.1.15,2013-09-02 15:38:00,
2013-09-02 11:44:00,86.7,77.8,30.03,East,95,0.0,7.0,75,0.00,,,0.01,179,Wunderground v.1.15,2013-09-02 15:44:00,
2013-09-02 11:50:00,86.5,78.0,30.03,East,95,2.0,2.0,76,0.00,,,0.01,179,Wunderground v.1.15,2013-09-02 15:50:00,
2013-09-02 11:56:00,87.2,78.3,30.03,East,99,1.0,2.0,75,0.00,,,0.01,923,Wunderground v.1.15,2013-09-02 15:56:00,
2013-09-02 12:02:00,87.9,78.2,30.03,SE,138,2.0,6.0,73,0.00,,,0.01,914,Wunderground v.1.15,2013-09-02 16:02:00,
2013-09-02 12:08:00,88.2,78.4,30.02,ESE,107,3.0,6.0,73,0.00,,,0.01,953,Wunderground v.1.15,2013-09-02 16:08:00,
2013-09-02 12:14:00,88.6,78.4,30.02,SE,125,2.0,2.0,72,0.00,,,0.01,969,Wunderground v.1.15,2013-09-02 16:14:00,
2013-09-02 12:20:00,88.5,78.3,30.01,ESE,104,3.0,5.0,72,0.00,,,0.01,937,Wunderground v.1.15,2013-09-02 16:20:00,
2013-09-02 12:26:00,88.8,78.6,30.01,SE,132,4.0,5.0,72,0.00,,,0.01,932,Wunderground v.1.15,2013-09-02 16:26:00,
2013-09-02 12:32:00,88.7,78.1,30.01,East,90,3.0,4.0,71,0.00,,,0.01,935,Wunderground v.1.15,2013-09-02 16:32:00,
2013-09-02 12:38:00,88.5,77.9,30.01,ENE,64,2.0,4.0,71,0.00,,,0.01,144,Wunderground v.1.15,2013-09-02 16:38:00,
2013-09-02 12:44:00,88.4,78.2,30.01,SE,131,3.0,3.0,72,0.00,,,0.01,276,Wunderground v.1.15,2013-09-02 16:44:00,
2013-09-02 12:50:00,88.6,78.4,30.01,ESE,118,3.0,4.0,72,0.00,,,0.01,972,Wunderground v.1.15,2013-09-02 16:50:00,
2013-09-02 12:56:00,88.8,78.2,30.01,East,98,3.0,9.0,71,0.00,,,0.01,791,Wunderground v.1.15,2013-09-02 16:56:00,
2013-09-02 13:02:00,88.8,77.7,30.01,SE,132,3.0,5.0,70,0.00,,,0.01,738,Wunderground v.1.15,2013-09-02 17:02:00,
2013-09-02 13:08:00,88.2,77.6,30.01,SE,129,4.0,7.0,71,0.00,,,0.01,378,Wunderground v.1.15,2013-09-02 17:08:00,
2013-09-02 13:14:00,87.5,77.4,30.01,East,96,6.0,7.0,72,0.00,,,0.01,350,Wunderground v.1.15,2013-09-02 17:14:00,
2013-09-02 13:20:00,88.1,77.5,30.01,ESE,119,4.0,9.0,71,0.00,,,0.01,1009,Wunderground v.1.15,2013-09-02 17:20:00,
2013-09-02 13:26:00,88.5,77.0,30.00,SSE,161,5.0,9.0,69,0.00,,,0.01,979,Wunderground v.1.15,2013-09-02 17:26:00,
2013-09-02 13:32:00,88.4,77.4,30.00,SSE,148,6.0,7.0,70,0.00,,,0.01,984,Wunderground v.1.15,2013-09-02 17:32:00,
2013-09-02 13:38:00,88.8,78.2,30.00,SE,146,6.0,10.0,71,0.00,,,0.01,962,Wunderground v.1.15,2013-09-02 17:38:00,
2013-09-02 13:44:00,88.7,78.1,30.00,ESE,121,6.0,8.0,71,0.00,,,0.01,454,Wunderground v.1.15,2013-09-02 17:44:00,
2013-09-02 13:50:00,87.8,77.2,30.00,ESE,111,6.0,7.0,71,0.00,,,0.01,316,Wunderground v.1.15,2013-09-02 17:50:00,
2013-09-02 13:56:00,87.0,77.3,30.00,SE,129,6.0,11.0,73,0.00,,,0.01,267,Wunderground v.1.15,2013-09-02 17:56:00,
2013-09-02 14:02:00,86.7,77.0,30.01,ESE,117,5.0,6.0,73,0.00,,,0.01,253,Wunderground v.1.15,2013-09-02 18:02:00,
2013-09-02 14:08:00,86.5,77.2,30.01,SE,134,5.0,10.0,74,0.00,,,0.01,246,Wunderground v.1.15,2013-09-02 18:08:00,
2013-09-02 14:14:00,86.3,77.0,30.00,SE,144,6.0,7.0,74,0.00,,,0.01,216,Wunderground v.1.15,2013-09-02 18:14:00,
2013-09-02 14:20:00,86.3,77.0,30.00,ESE,121,6.0,12.0,74,0.00,,,0.01,167,Wunderground v.1.15,2013-09-02 18:20:00,
2013-09-02 14:26:00,86.0,77.1,30.00,SSE,150,7.0,12.0,75,0.00,,,0.01,116,Wunderground v.1.15,2013-09-02 18:26:00,
2013-09-02 14:32:00,85.8,77.4,30.02,SSW,192,5.0,7.0,76,0.00,,,0.01,53,Wunderground v.1.15,2013-09-02 18:32:00,
2013-09-02 14:38:00,85.3,75.7,30.03,SSW,207,3.0,12.0,73,0.00,,,0.01,9,Wunderground v.1.15,2013-09-02 18:38:00,
2013-09-02 14:44:00,83.4,74.2,30.03,SSW,208,4.0,7.0,74,0.00,,,0.01,7,Wunderground v.1.15,2013-09-02 18:44:00,
2013-09-02 14:50:00,81.8,73.9,30.03,West,259,4.0,4.0,77,0.00,,,0.01,5,Wunderground v.1.15,2013-09-02 18:50:00,
2013-09-02 14:56:00,80.5,73.8,30.05,SW,222,5.0,13.0,80,0.00,,,0.01,5,Wunderground v.1.15,2013-09-02 18:56:00,
2013-09-02 15:02:00,78.6,72.6,30.05,West,264,6.0,8.0,82,3.69,,,0.09,5,Wunderground v.1.15,2013-09-02 19:02:00,
2013-09-02 15:08:00,76.1,71.3,30.03,WNW,292,5.0,8.0,85,0.72,,,0.32,9,Wunderground v.1.15,2013-09-02 19:08:00,
2013-09-02 15:14:00,75.3,71.5,30.01,WNW,296,2.0,4.0,88,0.16,,,0.34,11,Wunderground v.1.15,2013-09-02 19:14:00,
2013-09-02 15:20:00,75.1,72.0,30.01,WNW,298,0.0,0.0,90,0.10,,,0.35,14,Wunderground v.1.15,2013-09-02 19:20:00,
2013-09-02 15:26:00,75.0,72.2,30.00,WNW,298,0.0,0.0,91,0.05,,,0.35,23,Wunderground v.1.15,2013-09-02 19:26:00,
2013-09-02 15:32:00,75.0,72.5,30.00,NNW,338,0.0,0.0,92,0.00,,,0.35,32,Wunderground v.1.15,2013-09-02 19:32:00,
2013-09-02 15:38:00,74.6,71.8,30.00,NNW,338,1.0,1.0,91,0.00,,,0.35,39,Wunderground v.1.15,2013-09-02 19:38:00,
2013-09-02 15:44:00,74.6,72.1,30.00,NW,310,0.0,4.0,92,0.00,,,0.35,44,Wunderground v.1.15,2013-09-02 19:44:00,
2013-09-02 15:50:00,74.7,72.5,30.00,WNW,302,1.0,1.0,93,0.00,,,0.35,47,Wunderground v.1.15,2013-09-02 19:50:00,
2013-09-02 15:56:00,74.8,72.6,29.99,NW,307,2.0,4.0,93,0.00,,,0.35,53,Wunderground v.1.15,2013-09-02 19:56:00,
2013-09-02 16:02:00,75.1,72.9,29.99,West,278,1.0,2.0,93,0.00,,,0.35,58,Wunderground v.1.15,2013-09-02 20:02:00,
2013-09-02 16:08:00,75.2,73.4,29.99,West,270,0.0,2.0,94,0.00,,,0.35,63,Wunderground v.1.15,2013-09-02 20:08:00,
2013-09-02 16:14:00,75.4,73.6,29.99,WNW,294,0.0,0.0,94,0.00,,,0.35,65,Wunderground v.1.15,2013-09-02 20:14:00,
2013-09-02 16:20:00,75.3,73.1,30.00,WNW,293,0.0,0.0,93,0.00,,,0.35,70,Wunderground v.1.15,2013-09-02 20:20:00,
2013-09-02 16:26:00,75.4,73.6,30.00,WNW,292,0.0,0.0,94,0.00,,,0.35,79,Wunderground v.1.15,2013-09-02 20:26:00,
2013-09-02 16:32:00,75.6,73.8,29.99,West,273,0.0,0.0,94,0.00,,,0.35,90,Wunderground v.1.15,2013-09-02 20:32:00,
2013-09-02 16:38:00,75.7,73.8,29.99,West,272,0.0,0.0,94,0.00,,,0.35,102,Wunderground v.1.15,2013-09-02 20:38:00,
2013-09-02 16:44:00,75.8,73.9,29.99,WNW,297,0.0,0.0,94,0.00,,,0.35,113,Wunderground v.1.15,2013-09-02 20:44:00,
2013-09-02 16:50:00,76.1,74.2,29.99,WNW,294,0.0,6.0,94,0.00,,,0.36,121,Wunderground v.1.15,2013-09-02 20:50:00,
2013-09-02 16:56:00,76.2,74.3,29.99,WNW,301,1.0,7.0,94,0.00,,,0.36,132,Wunderground v.1.15,2013-09-02 20:56:00,
2013-09-02 17:02:00,76.4,74.5,29.99,West,281,1.0,4.0,94,0.00,,,0.36,141,Wunderground v.1.15,2013-09-02 21:02:00,
2013-09-02 17:08:00,76.4,74.5,29.99,WNW,302,2.0,4.0,94,0.00,,,0.36,148,Wunderground v.1.15,2013-09-02 21:08:00,
2013-09-02 17:14:00,76.4,74.2,29.98,NW,304,1.0,2.0,93,0.00,,,0.36,146,Wunderground v.1.15,2013-09-02 21:14:00,
2013-09-02 17:20:00,76.5,74.3,29.98,NW,314,0.0,0.0,93,0.00,,,0.36,146,Wunderground v.1.15,2013-09-02 21:20:00,
2013-09-02 17:26:00,76.4,74.2,29.98,NW,304,0.0,0.0,93,0.00,,,0.36,148,Wunderground v.1.15,2013-09-02 21:26:00,
2013-09-02 17:32:00,76.5,74.3,29.98,WNW,302,1.0,1.0,93,0.00,,,0.36,148,Wunderground v.1.15,2013-09-02 21:32:00,
2013-09-02 17:38:00,76.5,74.0,29.98,NW,311,1.0,1.0,92,0.00,,,0.36,146,Wunderground v.1.15,2013-09-02 21:38:00,
2013-09-02 17:44:00,76.9,74.4,29.97,NW,304,1.0,1.0,92,0.00,,,0.36,142,Wunderground v.1.15,2013-09-02 21:44:00,
2013-09-02 17:50:00,77.0,74.2,29.97,WNW,298,0.0,0.0,91,0.00,,,0.36,135,Wunderground v.1.15,2013-09-02 21:50:00,
2013-09-02 17:56:00,77.1,74.3,29.97,North,355,0.0,5.0,91,0.00,,,0.36,128,Wunderground v.1.15,2013-09-02 21:56:00,
2013-09-02 18:02:00,77.3,74.5,29.97,WNW,295,0.0,0.0,91,0.00,,,0.36,118,Wunderground v.1.15,2013-09-02 22:02:00,
2013-09-02 18:08:00,77.5,74.3,29.97,NW,307,0.0,1.0,90,0.00,,,0.36,105,Wunderground v.1.15,2013-09-02 22:08:00,
2013-09-02 18:14:00,77.6,74.4,29.96,NW,307,0.0,0.0,90,0.00,,,0.36,97,Wunderground v.1.15,2013-09-02 22:14:00,
2013-09-02 18:20:00,77.7,74.5,29.96,NW,307,0.0,0.0,90,0.00,,,0.36,88,Wunderground v.1.15,2013-09-02 22:20:00,
2013-09-02 18:26:00,77.8,74.6,29.96,WNW,292,0.0,0.0,90,0.00,,,0.36,77,Wunderground v.1.15,2013-09-02 22:26:00,
2013-09-02 18:32:00,77.9,74.7,29.96,WNW,294,0.0,0.0,90,0.00,,,0.36,67,Wunderground v.1.15,2013-09-02 22:32:00,
2013-09-02 18:38:00,77.8,74.6,29.96,NW,304,1.0,1.0,90,0.00,,,0.36,56,Wunderground v.1.15,2013-09-02 22:38:00,
2013-09-02 18:44:00,77.9,74.7,29.96,NW,304,0.0,1.0,90,0.00,,,0.36,51,Wunderground v.1.15,2013-09-02 22:44:00,
2013-09-02 18:50:00,77.8,74.3,29.96,WNW,303,0.0,0.0,89,0.00,,,0.36,46,Wunderground v.1.15,2013-09-02 22:50:00,
2013-09-02 18:56:00,77.8,74.3,29.96,NW,304,0.0,0.0,89,0.00,,,0.36,42,Wunderground v.1.15,2013-09-02 22:56:00,
2013-09-02 19:02:00,77.8,74.3,29.96,NW,326,0.0,0.0,89,0.00,,,0.36,37,Wunderground v.1.15,2013-09-02 23:02:00,
2013-09-02 19:08:00,77.9,74.4,29.96,NW,326,0.0,0.0,89,0.00,,,0.36,30,Wunderground v.1.15,2013-09-02 23:08:00,
2013-09-02 19:14:00,77.9,74.1,29.96,NW,326,0.0,0.0,88,0.00,,,0.36,23,Wunderground v.1.15,2013-09-02 23:14:00,
2013-09-02 19:20:00,78.0,74.2,29.96,NW,326,0.0,0.0,88,0.00,,,0.36,16,Wunderground v.1.15,2013-09-02 23:20:00,
2013-09-02 19:26:00,78.0,74.2,29.96,NW,326,0.0,0.0,88,0.00,,,0.36,11,Wunderground v.1.15,2013-09-02 23:26:00,
2013-09-02 19:32:00,78.0,74.2,29.95,NW,326,0.0,0.0,88,0.00,,,0.36,5,Wunderground v.1.15,2013-09-02 23:32:00,
2013-09-02 19:38:00,78.0,74.5,29.95,NW,326,0.0,0.0,89,0.00,,,0.36,0,Wunderground v.1.15,2013-09-02 23:38:00,
2013-09-02 19:44:00,77.9,74.1,29.96,NW,326,0.0,0.0,88,0.00,,,0.36,0,Wunderground v.1.15,2013-09-02 23:44:00,
2013-09-02 19:50:00,77.8,74.0,29.96,NW,326,0.0,0.0,88,0.00,,,0.36,0,Wunderground v.1.15,2013-09-02 23:50:00,
2013-09-02 19:56:00,77.7,74.2,29.96,NW,326,0.0,0.0,89,0.00,,,0.36,0,Wunderground v.1.15,2013-09-02 23:56:00,
2013-09-02 20:02:00,77.6,74.1,29.96,NW,326,0.0,0.0,89,0.00,,,0.36,0,Wunderground v.1.15,2013-09-03 00:02:00,
2013-09-02 20:08:00,77.5,74.0,29.97,NW,326,0.0,0.0,89,0.00,,,0.36,0,Wunderground v.1.15,2013-09-03 00:08:00,
2013-09-02 20:14:00,77.4,73.9,29.96,NW,326,0.0,0.0,89,0.00,,,0.36,0,Wunderground v.1.15,2013-09-03 00:14:00,
2013-09-02 20:20:00,77.2,73.7,29.97,NW,326,0.0,0.0,89,0.00,,,0.36,0,Wunderground v.1.15,2013-09-03 00:20:00,
2013-09-02 20:26:00,77.1,73.9,29.97,NW,326,0.0,0.0,90,0.00,,,0.36,0,Wunderground v.1.15,2013-09-03 00:26:00,
2013-09-02 20:32:00,77.0,73.8,29.97,NW,326,0.0,0.0,90,0.00,,,0.36,0,Wunderground v.1.15,2013-09-03 00:32:00,
2013-09-02 20:38:00,76.9,73.7,29.97,NW,326,0.0,0.0,90,0.00,,,0.36,0,Wunderground v.1.15,2013-09-03 00:38:00,
2013-09-02 20:44:00,76.9,73.7,29.97,NW,326,0.0,0.0,90,0.00,,,0.36,0,Wunderground v.1.15,2013-09-03 00:44:00,
2013-09-02 20:50:00,76.8,74.0,29.98,NW,326,0.0,0.0,91,0.00,,,0.36,0,Wunderground v.1.15,2013-09-03 00:50:00,
2013-09-02 20:56:00,76.8,74.0,29.98,NW,326,0.0,0.0,91,0.00,,,0.36,0,Wunderground v.1.15,2013-09-03 00:56:00,
2013-09-02 21:02:00,76.8,74.0,29.98,NW,326,0.0,0.0,91,0.00,,,0.36,0,Wunderground v.1.15,2013-09-03 01:02:00,
2013-09-02 21:08:00,76.7,73.9,29.99,NW,326,0.0,0.0,91,0.00,,,0.36,0,Wunderground v.1.15,2013-09-03 01:08:00,
2013-09-02 21:14:00,76.7,73.9,29.99,NW,326,0.0,0.0,91,0.00,,,0.36,0,Wunderground v.1.15,2013-09-03 01:14:00,
2013-09-02 21:20:00,76.7,73.9,29.99,NW,326,0.0,0.0,91,0.00,,,0.36,0,Wunderground v.1.15,2013-09-03 01:20:00,
2013-09-02 21:26:00,76.6,73.8,29.99,NW,326,0.0,0.0,91,0.00,,,0.36,0,Wunderground v.1.15,2013-09-03 01:26:00,
2013-09-02 21:32:00,76.4,73.6,29.99,NW,326,0.0,0.0,91,0.00,,,0.36,0,Wunderground v.1.15,2013-09-03 01:32:00,
2013-09-02 21:38:00,76.4,73.6,30.00,NW,326,0.0,0.0,91,0.00,,,0.36,0,Wunderground v.1.15,2013-09-03 01:38:00,
2013-09-02 21:44:00,76.3,73.5,30.00,NW,326,0.0,0.0,91,0.00,,,0.36,0,Wunderground v.1.15,2013-09-03 01:44:00,
2013-09-02 21:50:00,76.3,73.5,29.99,NW,326,0.0,0.0,91,0.00,,,0.36,0,Wunderground v.1.15,2013-09-03 01:50:00,
2013-09-02 21:56:00,76.3,73.5,29.99,NW,326,0.0,0.0,91,0.00,,,0.36,0,Wunderground v.1.15,2013-09-03 01:56:00,
2013-09-02 22:02:00,76.3,73.8,29.99,NW,326,0.0,0.0,92,0.00,,,0.36,0,Wunderground v.1.15,2013-09-03 02:02:00,
2013-09-02 22:08:00,76.3,73.8,29.99,NW,326,0.0,0.0,92,0.00,,,0.36,0,Wunderground v.1.15,2013-09-03 02:08:00,
2013-09-02 22:14:00,76.2,73.4,29.99,NW,326,0.0,0.0,91,0.00,,,0.36,0,Wunderground v.1.15,2013-09-03 02:14:00,
2013-09-02 22:20:00,76.2,73.7,29.99,NW,326,0.0,0.0,92,0.00,,,0.36,0,Wunderground v.1.15,2013-09-03 02:20:00,
2013-09-02 22:26:00,76.1,73.6,29.99,NW,326,0.0,0.0,92,0.00,,,0.36,0,Wunderground v.1.15,2013-09-03 02:26:00,
2013-09-02 22:32:00,76.0,73.5,29.99,NW,326,0.0,0.0,92,0.00,,,0.36,0,Wunderground v.1.15,2013-09-03 02:32:00,
2013-09-02 22:38:00,76.0,73.5,29.99,NW,326,0.0,0.0,92,0.00,,,0.36,0,Wunderground v.1.15,2013-09-03 02:38:00,
2013-09-02 22:44:00,75.9,73.4,29.99,NW,326,0.0,0.0,92,0.00,,,0.36,0,Wunderground v.1.15,2013-09-03 02:44:00,
2013-09-02 22:50:00,75.9,73.4,29.99,NW,326,0.0,0.0,92,0.00,,,0.36,0,Wunderground v.1.15,2013-09-03 02:50:00,
2013-09-02 22:56:00,75.8,73.3,29.99,NW,326,0.0,0.0,92,0.00,,,0.36,0,Wunderground v.1.15,2013-09-03 02:56:00,
2013-09-02 23:02:00,75.8,73.3,29.99,NW,326,0.0,0.0,92,0.00,,,0.36,0,Wunderground v.1.15,2013-09-03 03:02:00,
2013-09-02 23:08:00,75.7,73.2,29.99,NW,326,0.0,0.0,92,0.00,,,0.36,0,Wunderground v.1.15,2013-09-03 03:08:00,
2013-09-02 23:14:00,75.7,73.5,29.99,NW,326,0.0,0.0,93,0.00,,,0.36,0,Wunderground v.1.15,2013-09-03 03:14:00,
2013-09-02 23:20:00,75.6,73.1,29.98,NW,326,0.0,0.0,92,0.00,,,0.36,0,Wunderground v.1.15,2013-09-03 03:20:00,
2013-09-02 23:26:00,75.5,73.0,29.98,NW,326,0.0,0.0,92,0.00,,,0.36,0,Wunderground v.1.15,2013-09-03 03:26:00,
2013-09-02 23:32:00,75.5,73.3,29.99,NW,326,0.0,0.0,93,0.00,,,0.36,0,Wunderground v.1.15,2013-09-03 03:32:00,
2013-09-02 23:38:00,75.6,73.4,29.99,NW,326,0.0,0.0,93,0.00,,,0.36,0,Wunderground v.1.15,2013-09-03 03:38:00,
2013-09-02 23:44:00,75.6,73.4,29.99,NW,326,0.0,0.0,93,0.00,,,0.36,0,Wunderground v.1.15,2013-09-03 03:44:00,
2013-09-02 23:50:00,75.6,73.4,29.99,NW,326,0.0,0.0,93,0.00,,,0.36,0,Wunderground v.1.15,2013-09-03 03:50:00,
2013-09-02 23:56:00,75.5,73.3,29.99,NW,326,0.0,0.0,93,0.00,,,0.36,0,Wunderground v.1.15,2013-09-03 03:56:00,